Time;durP1;ratioP1;P1;durP2;ratioP2;P2;SDS_P1;SDS_P2;PMS_P1;PMS_P2;Temp;Humidity;BMP_temperature;BMP_pressure;BME280_temperature;BME280_humidity;BME280_pressure;Samples;Min_cycle;Max_cycle;Signal;HPM_P1;HPM_P2
2021/12/13 00:02:12;;;;;;;22.15;17.35;;;9.60;99.90;;;;;;5011773;28;20261;-91
2021/12/13 00:05:43;;;;;;;24.63;19.67;;;10.00;99.90;;;;;;5034453;28;20224;-91
2021/12/13 00:09:08;;;;;;;24.00;18.02;;;9.80;99.90;;;;;;5026179;28;20224;-91
2021/12/13 00:12:40;;;;;;;20.65;17.45;;;9.60;99.90;;;;;;5002665;28;20211;-91
2021/12/13 00:16:07;;;;;;;26.08;16.85;;;10.30;99.90;;;;;;5035842;28;20210;-89
2021/12/13 00:18:58;;;;;;;16.42;13.25;;;9.50;99.90;;;;;;5017829;28;20278;-90
2021/12/13 00:21:35;;;;;;;20.50;15.73;;;9.60;99.90;;;;;;5021203;28;20185;-91
2021/12/13 00:24:08;;;;;;;15.02;12.85;;;10.70;99.90;;;;;;5007321;28;20431;-91
2021/12/13 00:26:39;;;;;;;15.15;13.57;;;10.20;99.90;;;;;;5001582;28;20252;-89
2021/12/13 00:29:15;;;;;;;14.50;12.48;;;9.60;99.90;;;;;;5007733;28;20568;-90
2021/12/13 00:31:44;;;;;;;15.73;14.00;;;9.70;99.90;;;;;;5004213;28;20192;-90
2021/12/13 00:34:31;;;;;;;18.55;14.48;;;9.90;99.90;;;;;;4990216;28;20857;-89
2021/12/13 00:37:03;;;;;;;13.65;12.07;;;9.90;99.90;;;;;;5000853;28;20631;-90
2021/12/13 00:39:33;;;;;;;18.40;12.73;;;12.90;99.90;;;;;;5008505;28;20180;-90
2021/12/13 00:42:02;;;;;;;16.48;13.27;;;9.70;99.90;;;;;;5000509;28;20455;-90
2021/12/13 00:44:35;;;;;;;14.45;12.50;;;9.70;99.90;;;;;;5011408;28;20216;-90
2021/12/13 00:47:11;;;;;;;17.55;13.93;;;9.80;99.90;;;;;;5001060;28;20485;-90
2021/12/13 00:49:41;;;;;;;19.52;15.20;;;9.20;99.90;;;;;;4999495;28;20271;-90
2021/12/13 00:52:08;;;;;;;15.27;11.77;;;8.70;99.90;;;;;;5003897;28;20187;-89
2021/12/13 00:54:39;;;;;;;21.88;14.82;;;9.80;99.90;;;;;;5004045;28;20284;-90
2021/12/13 00:57:35;;;;;;;19.45;15.30;;;8.50;99.90;;;;;;4998820;28;20204;-90
2021/12/13 01:00:17;;;;;;;17.48;14.75;;;9.60;99.90;;;;;;4992192;28;20213;-90
2021/12/13 01:02:42;;;;;;;17.33;14.45;;;9.60;99.90;;;;;;5003739;28;20197;-90
2021/12/13 01:05:19;;;;;;;23.50;15.07;;;9.10;99.90;;;;;;4998952;28;20938;-90
2021/12/13 01:08:03;;;;;;;17.38;13.82;;;9.60;99.90;;;;;;5000859;28;20193;-90
2021/12/13 01:10:41;;;;;;;19.25;14.05;;;9.40;99.90;;;;;;5013103;28;20199;-89
2021/12/13 01:13:29;;;;;;;19.05;15.90;;;9.20;99.90;;;;;;5010923;28;20188;-90
2021/12/13 01:17:11;;;;;;;21.98;17.20;;;9.60;99.90;;;;;;4989155;28;20185;-90
2021/12/13 01:22:01;;;;;;;20.40;15.93;;;9.50;99.90;;;;;;4998652;28;20683;-91
2021/12/13 01:25:16;;;;;;;19.60;14.77;;;9.50;99.90;;;;;;5009372;28;20235;-90
2021/12/13 01:27:48;;;;;;;19.33;13.45;;;9.50;99.90;;;;;;5001119;28;20203;-90
2021/12/13 01:30:26;;;;;;;17.05;12.82;;;9.50;99.90;;;;;;4990596;28;20181;-91
2021/12/13 01:32:54;;;;;;;19.08;13.85;;;9.90;99.90;;;;;;4990721;28;20200;-89
2021/12/13 01:36:00;;;;;;;15.60;13.90;;;9.50;99.90;;;;;;5002881;28;20192;-90
2021/12/13 01:39:25;;;;;;;14.48;12.90;;;9.50;99.90;;;;;;5006362;28;20686;-89
2021/12/13 01:42:50;;;;;;;15.63;13.77;;;9.50;99.90;;;;;;5014840;28;20726;-89
2021/12/13 01:45:39;;;;;;;15.25;13.25;;;9.60;99.90;;;;;;4999116;28;20221;-90
2021/12/13 01:48:07;;;;;;;13.15;11.68;;;9.50;99.90;;;;;;5019741;28;20727;-88
2021/12/13 01:50:47;;;;;;;15.52;12.25;;;9.30;99.90;;;;;;5004527;28;20212;-88
2021/12/13 01:53:13;;;;;;;14.73;12.00;;;9.60;99.90;;;;;;5004081;28;20197;-89
2021/12/13 01:55:43;;;;;;;12.50;10.43;;;9.60;99.90;;;;;;5005821;28;20435;-90
2021/12/13 02:01:11;;;;;;;12.77;11.35;;;9.70;99.90;;;;;;5011202;28;20526;-89
2021/12/13 02:03:40;;;;;;;12.67;10.97;;;9.70;99.90;;;;;;5006597;28;20208;-89
2021/12/13 02:06:07;;;;;;;14.77;11.75;;;9.60;99.90;;;;;;4999294;28;20900;-89
2021/12/13 02:08:33;;;;;;;14.32;10.82;;;9.60;99.90;;;;;;5009131;28;20195;-89
2021/12/13 02:10:59;;;;;;;15.00;12.18;;;9.60;99.90;;;;;;5007845;28;20193;-89
2021/12/13 02:13:33;;;;;;;12.53;10.10;;;9.20;99.90;;;;;;5007138;28;20275;-89
2021/12/13 02:18:50;;;;;;;16.05;11.73;;;11.20;99.90;;;;;;5011579;28;20234;-89
2021/12/13 02:21:30;;;;;;;16.52;12.27;;;9.70;99.90;;;;;;5024907;28;20188;-89
2021/12/13 02:24:04;;;;;;;11.47;10.27;;;9.70;99.90;;;;;;4993802;28;20251;-90
2021/12/13 02:26:31;;;;;;;13.33;11.90;;;9.70;99.90;;;;;;5005111;28;20435;-89
2021/12/13 02:29:15;;;;;;;11.00;9.90;;;9.70;99.90;;;;;;5024173;28;20493;-89
2021/12/13 02:31:42;;;;;;;12.40;11.10;;;10.60;99.90;;;;;;5007566;28;20184;-90
2021/12/13 02:34:12;;;;;;;12.55;11.25;;;9.40;99.90;;;;;;5007315;28;20207;-90
2021/12/13 02:36:42;;;;;;;10.87;9.80;;;11.20;99.90;;;;;;5007280;28;20798;-90
2021/12/13 02:39:12;;;;;;;11.10;10.10;;;9.50;99.90;;;;;;5010812;28;20440;-89
2021/12/13 02:41:40;;;;;;;11.70;10.53;;;9.60;99.90;;;;;;5006002;28;20853;-88
2021/12/13 02:44:29;;;;;;;11.90;8.98;;;10.50;99.90;;;;;;5002039;28;21251;-90
2021/12/13 02:47:05;;;;;;;9.55;8.65;;;8.40;99.90;;;;;;4999897;28;20196;-90
2021/12/13 02:49:33;;;;;;;12.10;10.20;;;10.60;99.90;;;;;;5006432;28;20200;-90
2021/12/13 02:52:04;;;;;;;10.60;9.20;;;9.60;99.90;;;;;;5010391;28;20208;-90
2021/12/13 02:54:36;;;;;;;10.60;9.60;;;9.70;99.90;;;;;;4997424;28;20448;-90
2021/12/13 02:57:12;;;;;;;11.02;9.95;;;9.50;99.90;;;;;;5000367;28;20215;-90
2021/12/13 02:59:41;;;;;;;11.35;10.25;;;9.60;99.90;;;;;;5002681;28;20575;-90
2021/12/13 03:02:16;;;;;;;9.43;8.57;;;9.60;99.90;;;;;;5008247;28;20200;-90
2021/12/13 03:04:42;;;;;;;10.38;8.88;;;9.60;99.90;;;;;;4996219;28;20211;-89
2021/12/13 03:07:13;;;;;;;10.57;9.00;;;9.60;99.90;;;;;;5003907;28;20184;-89
2021/12/13 03:09:40;;;;;;;10.13;9.00;;;9.60;99.90;;;;;;4998194;28;20239;-90
2021/12/13 03:12:09;;;;;;;9.75;8.75;;;9.60;99.90;;;;;;5003430;28;20197;-88
2021/12/13 03:14:43;;;;;;;8.13;7.43;;;9.60;99.90;;;;;;5031817;28;20196;-90
2021/12/13 03:17:14;;;;;;;9.70;8.05;;;8.70;99.90;;;;;;4995989;28;20193;-89
2021/12/13 03:19:40;;;;;;;9.05;8.35;;;9.70;99.90;;;;;;5005076;28;20230;-89
2021/12/13 03:22:23;;;;;;;9.90;8.90;;;10.90;99.90;;;;;;5010526;28;20192;-89
2021/12/13 03:25:09;;;;;;;9.95;9.02;;;9.60;99.90;;;;;;5005909;28;20313;-90
2021/12/13 03:28:19;;;;;;;12.10;10.52;;;9.50;99.90;;;;;;5001815;28;20877;-89
2021/12/13 03:31:05;;;;;;;9.48;8.65;;;9.40;99.90;;;;;;4949671;29;20186;-89
2021/12/13 03:33:43;;;;;;;10.30;9.07;;;9.40;99.90;;;;;;4938424;28;20198;-90
2021/12/13 03:36:14;;;;;;;10.35;9.35;;;9.30;99.90;;;;;;4989629;28;21020;-90
2021/12/13 03:38:46;;;;;;;10.53;9.20;;;9.40;99.90;;;;;;5011985;28;20208;-89
2021/12/13 03:41:17;;;;;;;11.20;8.85;;;9.30;99.90;;;;;;4996030;28;20443;-91
2021/12/13 03:43:58;;;;;;;10.63;9.43;;;9.40;99.90;;;;;;4998087;28;20208;-91
2021/12/13 03:46:26;;;;;;;10.82;9.38;;;9.40;99.90;;;;;;5001547;28;20556;-89
2021/12/13 03:48:59;;;;;;;9.65;8.75;;;9.40;99.90;;;;;;5002523;28;20189;-90
2021/12/13 03:51:32;;;;;;;9.32;8.43;;;9.00;99.90;;;;;;4993880;28;20208;-90
2021/12/13 03:54:39;;;;;;;8.13;7.43;;;9.70;99.90;;;;;;5021679;28;20191;-90
2021/12/13 03:57:05;;;;;;;9.68;8.63;;;9.70;99.90;;;;;;5007767;28;20180;-89
2021/12/13 03:59:39;;;;;;;8.53;7.83;;;9.80;99.90;;;;;;5012292;28;20757;-88
2021/12/13 04:02:10;;;;;;;9.17;8.47;;;9.60;99.90;;;;;;5004837;28;20782;-90
2021/12/13 04:04:44;;;;;;;8.85;8.05;;;9.50;99.90;;;;;;5002224;28;20566;-90
2021/12/13 04:07:27;;;;;;;9.32;8.52;;;9.50;99.90;;;;;;4996496;28;20193;-89
2021/12/13 04:09:56;;;;;;;11.13;10.00;;;9.50;99.90;;;;;;4997056;28;20218;-89
2021/12/13 04:12:30;;;;;;;10.97;10.07;;;9.40;99.90;;;;;;4998601;28;20177;-90
2021/12/13 04:15:02;;;;;;;13.43;9.10;;;9.40;99.90;;;;;;5004836;28;20459;-90
2021/12/13 04:17:45;;;;;;;19.45;10.95;;;9.40;99.90;;;;;;5007869;28;20435;-89
2021/12/13 04:20:33;;;;;;;9.33;8.37;;;10.10;99.90;;;;;;5005214;28;20733;-90
2021/12/13 04:23:05;;;;;;;11.10;10.00;;;9.50;99.90;;;;;;5011356;28;21340;-89
2021/12/13 04:25:37;;;;;;;11.40;10.30;;;9.10;99.90;;;;;;5017855;28;20565;-89
2021/12/13 04:28:32;;;;;;;11.93;9.10;;;9.50;99.90;;;;;;4997462;28;20191;-92
2021/12/13 04:31:03;;;;;;;10.65;8.93;;;9.50;99.90;;;;;;5007479;28;20192;-92
2021/12/13 04:33:35;;;;;;;11.68;10.57;;;9.40;99.90;;;;;;5005076;28;20212;-93
2021/12/13 04:36:15;;;;;;;10.43;9.43;;;8.20;99.90;;;;;;5012548;28;20193;-92
2021/12/13 04:38:55;;;;;;;16.60;10.87;;;11.40;99.90;;;;;;5002680;28;20189;-91
2021/12/13 04:41:29;;;;;;;11.65;9.70;;;11.60;99.90;;;;;;4997963;28;20431;-92
2021/12/13 04:44:12;;;;;;;12.02;10.80;;;9.90;99.90;;;;;;5009139;28;20224;-91
2021/12/13 04:46:41;;;;;;;18.42;12.27;;;10.40;99.90;;;;;;5009181;28;20294;-92
2021/12/13 04:49:13;;;;;;;13.77;11.88;;;7.50;99.90;;;;;;5011416;28;20579;-92
2021/12/13 04:51:52;;;;;;;15.57;11.27;;;9.70;99.90;;;;;;5005857;28;20287;-92
2021/12/13 04:54:18;;;;;;;12.00;10.17;;;10.10;99.90;;;;;;4989867;28;20439;-92
2021/12/13 04:56:47;;;;;;;12.10;10.93;;;8.50;99.90;;;;;;5013521;28;20492;-92
2021/12/13 04:59:14;;;;;;;11.30;10.30;;;11.30;99.90;;;;;;5014367;28;20447;-92
2021/12/13 05:01:44;;;;;;;13.85;11.70;;;10.90;99.90;;;;;;5000263;28;20279;-92
2021/12/13 05:04:13;;;;;;;16.95;11.65;;;11.00;99.90;;;;;;5012360;28;20189;-92
2021/12/13 05:06:46;;;;;;;17.42;11.70;;;13.80;99.90;;;;;;5006371;28;20232;-92
2021/12/13 05:09:16;;;;;;;13.90;12.40;;;9.20;99.90;;;;;;4994546;28;20193;-92
2021/12/13 05:11:55;;;;;;;14.90;10.80;;;11.10;99.90;;;;;;5006751;28;20185;-90
2021/12/13 05:14:37;;;;;;;11.15;10.05;;;9.10;99.90;;;;;;5009954;28;20995;-92
2021/12/13 05:17:12;;;;;;;11.55;10.55;;;9.80;99.90;;;;;;5008932;28;20192;-92
2021/12/13 05:19:43;;;;;;;11.03;9.93;;;7.70;99.90;;;;;;5001244;28;20204;-93
2021/12/13 05:22:11;;;;;;;11.02;9.00;;;10.50;99.90;;;;;;5004045;28;20968;-92
2021/12/13 05:24:50;;;;;;;9.10;8.18;;;12.20;99.90;;;;;;5013492;28;20276;-91
2021/12/13 05:27:31;;;;;;;10.10;8.80;;;9.70;99.90;;;;;;5020059;28;20398;-90
2021/12/13 05:30:24;;;;;;;9.00;8.10;;;9.40;99.90;;;;;;5010827;28;20196;-92
2021/12/13 05:32:55;;;;;;;9.93;9.13;;;8.60;99.90;;;;;;4994408;28;20181;-91
2021/12/13 05:35:26;;;;;;;10.37;9.47;;;8.50;99.90;;;;;;5013141;28;20917;-90
2021/12/13 05:37:58;;;;;;;13.63;9.77;;;9.10;99.90;;;;;;5012454;28;20478;-92
2021/12/13 05:40:40;;;;;;;11.40;9.40;;;9.20;99.90;;;;;;5009789;28;20435;-90
2021/12/13 05:43:36;;;;;;;11.73;10.55;;;9.20;99.90;;;;;;5005964;28;20419;-90
2021/12/13 05:46:07;;;;;;;11.65;10.55;;;9.20;99.90;;;;;;5004865;28;20251;-89
2021/12/13 05:48:35;;;;;;;12.75;10.25;;;9.20;99.90;;;;;;5009127;28;20362;-90
2021/12/13 05:51:07;;;;;;;11.52;8.52;;;9.10;99.90;;;;;;5003876;28;20255;-90
2021/12/13 05:53:42;;;;;;;9.65;8.73;;;9.00;99.90;;;;;;5005210;28;20177;-90
2021/12/13 05:56:15;;;;;;;10.48;9.38;;;9.10;99.90;;;;;;5001034;28;20201;-91
2021/12/13 05:58:43;;;;;;;11.50;9.48;;;8.60;99.90;;;;;;5012008;28;20196;-89
2021/12/13 06:01:30;;;;;;;10.10;9.18;;;9.10;99.90;;;;;;4995194;28;20765;-90
2021/12/13 06:04:11;;;;;;;14.25;10.52;;;9.20;99.90;;;;;;5003597;28;20591;-91
2021/12/13 06:06:52;;;;;;;9.77;8.93;;;9.20;99.90;;;;;;5021846;28;20200;-90
2021/12/13 06:09:40;;;;;;;12.00;10.70;;;9.30;99.90;;;;;;5001105;28;20268;-90
2021/12/13 06:12:28;;;;;;;;;;;;;;;;;;;;;
2021/12/13 06:15:01;;;;;;;12.00;10.20;;;9.20;99.90;;;;;;5006496;28;20195;-88
2021/12/13 06:17:33;;;;;;;10.43;9.20;;;9.20;99.90;;;;;;5013630;28;20498;-90
2021/12/13 06:20:04;;;;;;;12.93;10.35;;;9.20;99.90;;;;;;4999210;28;20264;-89
2021/12/13 06:22:32;;;;;;;11.07;9.80;;;9.10;99.90;;;;;;5007095;28;20219;-89
2021/12/13 06:25:05;;;;;;;9.80;8.85;;;9.20;99.90;;;;;;5023443;28;20207;-89
2021/12/13 06:27:40;;;;;;;10.05;9.25;;;9.10;99.90;;;;;;4997711;28;20193;-89
2021/12/13 06:30:21;;;;;;;10.82;8.93;;;8.80;99.90;;;;;;4998601;28;20599;-89
2021/12/13 06:33:04;;;;;;;11.27;9.95;;;9.20;99.90;;;;;;5010348;28;20189;-88
2021/12/13 06:36:14;;;;;;;9.00;8.20;;;9.60;99.90;;;;;;5000815;28;20261;-88
2021/12/13 06:39:39;;;;;;;10.50;9.23;;;9.20;99.90;;;;;;5018700;28;20208;-90
2021/12/13 06:43:05;;;;;;;11.68;10.48;;;9.30;99.90;;;;;;4669269;28;10000893;-89
2021/12/13 06:46:30;;;;;;;12.10;10.90;;;9.30;99.90;;;;;;5003250;28;20216;-91
2021/12/13 06:50:10;;;;;;;10.40;9.50;;;9.30;99.90;;;;;;5012558;28;20275;-89
2021/12/13 06:53:48;;;;;;;11.88;10.15;;;9.20;99.90;;;;;;5020582;28;20200;-91
2021/12/13 06:57:13;;;;;;;10.25;9.20;;;9.20;99.90;;;;;;5007187;28;20197;-85
2021/12/13 07:00:20;;;;;;;11.27;10.00;;;9.40;99.90;;;;;;5020120;28;20208;-90
2021/12/13 07:03:46;;;;;;;20.17;11.90;;;9.00;99.90;;;;;;5007050;28;20204;-89
2021/12/13 07:07:11;;;;;;;10.73;9.73;;;9.20;99.90;;;;;;5004571;28;20412;-89
2021/12/13 07:10:40;;;;;;;9.55;8.80;;;9.20;99.90;;;;;;4993221;28;20238;-89
2021/12/13 07:14:20;;;;;;;13.30;9.70;;;9.50;99.90;;;;;;5001752;28;20291;-88
2021/12/13 07:17:14;;;;;;;10.90;9.73;;;9.30;99.90;;;;;;5007201;28;20192;-88
2021/12/13 07:20:40;;;;;;;10.75;9.10;;;10.60;99.90;;;;;;5004860;28;20197;-89
2021/12/13 07:24:24;;;;;;;11.18;10.00;;;9.30;99.90;;;;;;5004368;28;20206;-90
2021/12/13 07:27:33;;;;;;;10.50;9.60;;;9.20;99.90;;;;;;5007226;28;20292;-88
2021/12/13 07:30:57;;;;;;;10.02;9.02;;;9.60;99.90;;;;;;5005592;28;20753;-90
2021/12/13 07:34:32;;;;;;;10.70;8.52;;;12.10;99.90;;;;;;5011810;28;20204;-88
2021/12/13 07:38:15;;;;;;;11.00;8.95;;;9.30;99.90;;;;;;5006292;28;20236;-90
2021/12/13 07:41:41;;;;;;;9.13;8.35;;;9.30;99.90;;;;;;5006735;28;20261;-90
2021/12/13 07:45:04;;;;;;;12.33;10.43;;;9.90;99.90;;;;;;4663945;28;10000460;-90
2021/12/13 07:48:32;;;;;;;10.10;9.20;;;9.40;99.90;;;;;;5011968;28;20209;-90
2021/12/13 07:52:00;;;;;;;8.73;7.93;;;7.80;99.90;;;;;;5008104;28;20353;-91
2021/12/13 07:55:32;;;;;;;10.60;9.60;;;8.40;99.90;;;;;;4990942;28;20189;-90
2021/12/13 07:58:41;;;;;;;11.07;8.82;;;9.30;99.90;;;;;;4987559;28;20184;-91
2021/12/13 08:01:32;;;;;;;8.90;8.00;;;10.60;99.90;;;;;;4995613;28;20180;-89
2021/12/13 08:04:10;;;;;;;9.20;8.30;;;9.40;99.90;;;;;;5003844;28;20493;-91
2021/12/13 08:07:17;;;;;;;10.05;9.13;;;9.70;99.90;;;;;;5017928;28;20215;-90
2021/12/13 08:09:52;;;;;;;9.77;8.83;;;9.00;99.90;;;;;;5038849;22;20242;-84
2021/12/13 08:12:22;;;;;;;9.67;8.80;;;7.40;99.90;;;;;;5018551;28;20411;-82
2021/12/13 08:14:54;;;;;;;8.45;7.88;;;9.30;99.90;;;;;;5008274;28;20454;-81
2021/12/13 08:17:31;;;;;;;8.10;7.40;;;11.60;99.90;;;;;;4998877;28;20251;-84
2021/12/13 08:20:06;;;;;;;8.80;8.10;;;9.20;99.90;;;;;;4991933;28;20184;-85
2021/12/13 08:22:36;;;;;;;7.87;7.27;;;9.40;99.90;;;;;;4996791;28;20177;-84
2021/12/13 08:25:13;;;;;;;9.25;8.40;;;9.10;99.90;;;;;;5005869;28;20605;-83
2021/12/13 08:27:47;;;;;;;11.23;8.70;;;9.90;99.90;;;;;;5020562;28;20637;-82
2021/12/13 08:30:16;;;;;;;10.68;8.95;;;9.30;99.90;;;;;;5005141;28;22042;-84
2021/12/13 08:33:05;;;;;;;9.57;8.88;;;9.40;99.90;;;;;;5015654;28;20173;-84
2021/12/13 08:36:09;;;;;;;13.35;7.93;;;9.00;99.90;;;;;;5001731;28;20258;-84
2021/12/13 08:39:01;;;;;;;8.13;7.43;;;9.40;99.90;;;;;;5018620;28;20356;-81
2021/12/13 08:41:43;;;;;;;9.45;8.68;;;9.40;99.90;;;;;;5002265;28;20284;-79
2021/12/13 08:44:18;;;;;;;8.90;8.00;;;9.40;99.90;;;;;;4995231;28;20261;-83
2021/12/13 08:46:55;;;;;;;8.57;7.55;;;9.40;99.90;;;;;;5007200;28;20431;-83
2021/12/13 08:49:31;;;;;;;7.97;7.25;;;10.60;99.90;;;;;;5015188;28;20236;-83
2021/12/13 08:52:27;;;;;;;7.70;7.15;;;9.30;99.90;;;;;;5015716;28;20676;-83
2021/12/13 08:55:11;;;;;;;8.15;7.50;;;9.90;99.90;;;;;;5017353;28;20255;-83
2021/12/13 08:57:54;;;;;;;5.68;5.38;;;9.30;99.90;;;;;;5010740;28;20248;-81
2021/12/13 09:00:32;;;;;;;7.50;6.90;;;9.40;99.90;;;;;;5006487;28;20318;-82
2021/12/13 09:03:22;;;;;;;7.25;6.03;;;10.10;99.90;;;;;;4998448;28;20299;-84
2021/12/13 09:06:23;;;;;;;7.22;6.50;;;9.60;99.90;;;;;;4999226;28;20256;-84
2021/12/13 09:09:11;;;;;;;6.50;6.10;;;9.50;99.90;;;;;;4999551;28;20205;-83
2021/12/13 09:11:59;;;;;;;6.80;6.30;;;9.70;99.90;;;;;;4659673;28;10000483;-83
2021/12/13 09:14:39;;;;;;;5.20;4.97;;;8.70;99.90;;;;;;5004677;28;20191;-84
2021/12/13 09:17:34;;;;;;;7.10;6.60;;;11.90;99.90;;;;;;5006372;28;20928;-84
2021/12/13 09:20:28;;;;;;;6.60;6.07;;;9.60;99.90;;;;;;5018740;28;20486;-84
2021/12/13 09:23:05;;;;;;;5.45;5.15;;;9.60;99.90;;;;;;5014849;28;20248;-80
2021/12/13 09:25:57;;;;;;;6.18;5.72;;;9.90;99.90;;;;;;5014882;28;20236;-82
2021/12/13 09:28:27;;;;;;;5.45;5.20;;;11.70;99.90;;;;;;5027341;28;20240;-81
2021/12/13 09:31:03;;;;;;;7.43;6.88;;;9.70;99.90;;;;;;5011302;28;20226;-81
2021/12/13 09:33:46;;;;;;;5.82;5.20;;;11.90;99.90;;;;;;5017570;28;20181;-80
2021/12/13 09:36:32;;;;;;;5.15;4.85;;;11.70;99.90;;;;;;5008400;28;20196;-83
2021/12/13 09:39:10;;;;;;;6.93;6.43;;;9.80;99.90;;;;;;5007933;28;20185;-82
2021/12/13 09:42:01;;;;;;;6.72;6.22;;;10.20;99.90;;;;;;5021313;28;20327;-82
2021/12/13 09:44:37;;;;;;;5.80;5.40;;;9.80;99.90;;;;;;5006367;28;20212;-83
2021/12/13 09:47:18;;;;;;;6.30;5.90;;;11.60;99.90;;;;;;5003590;28;20226;-84
2021/12/13 09:49:51;;;;;;;5.45;5.15;;;11.00;99.90;;;;;;5010571;28;20249;-78
2021/12/13 09:52:53;;;;;;;6.00;5.50;;;12.00;99.90;;;;;;5019476;28;20188;-84
2021/12/13 09:55:54;;;;;;;;;;;;;;;;;;;;;
2021/12/13 09:58:46;;;;;;;5.87;5.27;;;8.90;99.90;;;;;;4995448;28;20488;-84
2021/12/13 10:01:23;;;;;;;8.25;6.40;;;8.00;99.90;;;;;;4995010;28;20456;-83
2021/12/13 10:04:22;;;;;;;6.32;5.80;;;10.70;99.90;;;;;;4998945;28;20177;-83
2021/12/13 10:06:56;;;;;;;7.50;5.47;;;9.90;99.90;;;;;;5015712;28;20214;-84
2021/12/13 10:09:51;;;;;;;10.57;5.15;;;10.00;99.90;;;;;;5022818;28;20566;-83
2021/12/13 10:12:55;;;;;;;5.10;4.80;;;10.60;99.90;;;;;;5008452;28;20200;-83
2021/12/13 10:15:33;;;;;;;4.97;4.67;;;9.10;99.90;;;;;;5034792;28;20784;-83
2021/12/13 10:18:23;;;;;;;6.17;5.00;;;10.70;99.90;;;;;;4998588;28;20432;-84
2021/12/13 10:20:57;;;;;;;4.70;4.50;;;10.00;99.90;;;;;;4998647;28;20426;-79
2021/12/13 10:23:40;;;;;;;5.38;5.18;;;10.00;99.90;;;;;;5074181;23;20580;-83
2021/12/13 10:26:08;;;;;;;6.50;4.27;;;10.00;99.90;;;;;;5062697;28;20252;-83
2021/12/13 10:28:52;;;;;;;5.75;5.35;;;8.70;99.90;;;;;;5096467;22;20555;-89
2021/12/13 10:31:26;;;;;;;8.90;6.53;;;7.90;99.90;;;;;;5047679;28;20178;-88
2021/12/13 10:33:56;;;;;;;5.45;5.05;;;9.30;99.90;;;;;;5050255;28;20170;-90
2021/12/13 10:36:24;;;;;;;5.00;4.70;;;10.20;99.90;;;;;;4688242;28;10000631;-90
2021/12/13 10:38:59;;;;;;;6.03;5.50;;;9.80;99.90;;;;;;5039008;28;20183;-89
2021/12/13 10:41:47;;;;;;;5.05;4.68;;;9.90;99.90;;;;;;5064101;28;20159;-90
2021/12/13 10:47:33;;;;;;;5.00;4.78;;;8.50;99.90;;;;;;5144389;22;20236;-85
2021/12/13 10:50:06;;;;;;;5.60;5.30;;;11.60;99.90;;;;;;5020776;28;20615;-84
2021/12/13 10:52:35;;;;;;;4.20;4.00;;;10.30;99.90;;;;;;5042126;28;20423;-83
2021/12/13 10:55:16;;;;;;;4.53;4.23;;;13.00;99.90;;;;;;5029214;28;20429;-86
2021/12/13 10:57:50;;;;;;;4.90;4.50;;;10.00;99.90;;;;;;5021150;28;20479;-87
2021/12/13 11:00:28;;;;;;;5.77;5.30;;;11.90;99.90;;;;;;5016744;28;20435;-84
2021/12/13 11:03:09;;;;;;;4.93;4.72;;;10.60;99.90;;;;;;5022135;28;20439;-82
2021/12/13 11:05:36;;;;;;;6.38;5.00;;;10.00;99.90;;;;;;5013656;28;20212;-87
2021/12/13 11:08:06;;;;;;;4.97;4.73;;;10.50;99.90;;;;;;5030738;28;20219;-87
2021/12/13 11:10:47;;;;;;;4.50;4.38;;;11.90;99.90;;;;;;5044441;28;20447;-87
2021/12/13 11:13:14;;;;;;;4.43;4.17;;;12.70;99.90;;;;;;5015175;28;20180;-83
2021/12/13 11:15:45;;;;;;;4.35;4.25;;;11.30;99.90;;;;;;5041819;28;20430;-86
2021/12/13 11:18:17;;;;;;;5.00;4.60;;;10.30;99.90;;;;;;5015267;28;20267;-77
2021/12/13 11:20:52;;;;;;;5.40;4.72;;;10.40;99.90;;;;;;5041616;28;20306;-86
2021/12/13 11:23:23;;;;;;;3.95;3.85;;;10.60;99.90;;;;;;5034664;28;20206;-85
2021/12/13 11:25:56;;;;;;;4.07;3.87;;;12.10;99.90;;;;;;5037958;28;20567;-85
2021/12/13 11:28:24;;;;;;;3.70;3.50;;;13.60;99.90;;;;;;5039255;28;20501;-80
2021/12/13 11:30:51;;;;;;;4.13;3.70;;;10.30;99.90;;;;;;5006658;28;20186;-82
2021/12/13 11:33:42;;;;;;;4.78;4.57;;;11.30;99.90;;;;;;5021409;28;20188;-81
2021/12/13 11:36:08;;;;;;;4.78;4.53;;;10.30;99.90;;;;;;5025640;28;20203;-83
2021/12/13 11:38:46;;;;;;;3.92;3.70;;;14.20;99.90;;;;;;5033247;28;20196;-82
2021/12/13 11:41:42;;;;;;;4.95;4.65;;;10.80;99.90;;;;;;5022432;28;20193;-84
2021/12/13 11:44:42;;;;;;;4.97;4.57;;;10.20;99.90;;;;;;5019271;28;20326;-86
2021/12/13 11:47:45;;;;;;;5.70;5.30;;;11.90;99.90;;;;;;5019784;28;20216;-80
2021/12/13 11:50:38;;;;;;;3.95;3.80;;;10.30;99.90;;;;;;5003400;28;20443;-86
2021/12/13 11:53:41;;;;;;;4.63;4.40;;;10.60;99.90;;;;;;5031207;28;20176;-79
2021/12/13 11:56:25;;;;;;;4.85;4.60;;;10.30;99.90;;;;;;5039833;28;20498;-88
2021/12/13 11:59:30;;;;;;;4.32;4.10;;;10.40;99.90;;;;;;5044114;28;20243;-80
2021/12/13 12:02:06;;;;;;;4.17;3.97;;;10.40;99.90;;;;;;5045341;28;20273;-86
2021/12/13 12:05:17;;;;;;;4.80;4.57;;;11.40;99.90;;;;;;5036828;28;20433;-85
2021/12/13 12:08:05;;;;;;;5.70;5.05;;;10.60;99.90;;;;;;5037414;28;20430;-88
2021/12/13 12:11:06;;;;;;;4.22;4.00;;;11.40;99.90;;;;;;5030252;28;20183;-85
2021/12/13 12:14:05;;;;;;;4.90;3.80;;;10.50;99.90;;;;;;5035350;28;20611;-87
2021/12/13 12:16:44;;;;;;;4.72;4.28;;;11.40;99.90;;;;;;5036221;28;20443;-78
2021/12/13 12:19:16;;;;;;;4.00;3.90;;;10.70;99.90;;;;;;5031256;28;20172;-86
2021/12/13 12:21:50;;;;;;;4.93;4.75;;;10.60;99.90;;;;;;5033524;28;20199;-87
2021/12/13 12:24:21;;;;;;;7.20;6.70;;;10.20;99.90;;;;;;5035898;28;20199;-86
2021/12/13 12:26:52;;;;;;;4.82;4.60;;;12.60;99.90;;;;;;5030139;28;20476;-82
2021/12/13 12:29:25;;;;;;;6.70;6.20;;;10.70;99.90;;;;;;5015266;28;20214;-86
2021/12/13 12:32:19;;;;;;;5.13;4.83;;;10.70;99.90;;;;;;5033365;28;20262;-87
2021/12/13 12:34:50;;;;;;;4.30;4.10;;;10.70;99.90;;;;;;5009565;28;20707;-86
2021/12/13 12:37:31;;;;;;;5.80;5.10;;;10.70;99.90;;;;;;5007496;28;20174;-80
2021/12/13 12:40:21;;;;;;;5.77;5.27;;;10.80;99.90;;;;;;5030777;28;20529;-85
2021/12/13 12:42:51;;;;;;;4.77;4.43;;;10.70;99.90;;;;;;5032619;28;20441;-87
2021/12/13 12:45:25;;;;;;;6.00;5.70;;;10.70;99.90;;;;;;5037718;28;20482;-83
2021/12/13 12:48:05;;;;;;;5.63;5.20;;;10.80;99.90;;;;;;5024453;28;20164;-80
2021/12/13 12:50:53;;;;;;;4.70;3.93;;;10.70;99.90;;;;;;5013021;28;20562;-85
2021/12/13 12:53:58;;;;;;;4.57;4.28;;;10.80;99.90;;;;;;5022785;28;20436;-86
2021/12/13 12:56:54;;;;;;;4.07;3.88;;;10.90;99.90;;;;;;5030500;28;20263;-83
2021/12/13 12:59:36;;;;;;;4.23;4.03;;;11.00;99.90;;;;;;5020840;28;20180;-83
2021/12/13 13:02:09;;;;;;;4.25;4.05;;;11.70;99.90;;;;;;5023452;28;20526;-85
2021/12/13 13:04:58;;;;;;;4.27;3.87;;;11.00;99.90;;;;;;5004227;28;20208;-87
2021/12/13 13:07:33;;;;;;;5.25;3.80;;;11.00;99.90;;;;;;5012694;28;20469;-89
2021/12/13 13:10:25;;;;;;;3.67;3.47;;;11.00;99.90;;;;;;5019125;28;20309;-82
2021/12/13 13:13:11;;;;;;;4.07;3.40;;;11.00;99.90;;;;;;5020169;28;20443;-87
2021/12/13 13:15:49;;;;;;;3.72;3.55;;;11.10;99.90;;;;;;5020783;28;20176;-84
2021/12/13 13:18:23;;;;;;;4.00;3.65;;;11.10;99.90;;;;;;5022615;28;20172;-85
2021/12/13 13:21:02;;;;;;;3.47;3.37;;;11.00;99.90;;;;;;5003475;28;20185;-85
2021/12/13 13:23:48;;;;;;;3.03;3.03;;;10.80;99.90;;;;;;5020866;28;20442;-86
2021/12/13 13:26:17;;;;;;;3.40;3.20;;;10.60;99.90;;;;;;5016593;28;20244;-83
2021/12/13 13:28:46;;;;;;;3.30;3.15;;;10.80;99.90;;;;;;5017468;28;20720;-83
2021/12/13 13:31:37;;;;;;;7.63;4.37;;;11.10;99.90;;;;;;5005380;28;20193;-87
2021/12/13 13:34:14;;;;;;;3.20;3.10;;;12.30;99.90;;;;;;5006102;28;20463;-86
2021/12/13 13:36:55;;;;;;;3.20;3.10;;;12.80;99.90;;;;;;5018862;28;20396;-85
2021/12/13 13:39:42;;;;;;;3.33;3.22;;;11.10;99.90;;;;;;5019027;28;20161;-87
2021/12/13 13:42:38;;;;;;;3.33;3.22;;;11.30;99.90;;;;;;5022187;28;20472;-86
2021/12/13 13:45:25;;;;;;;3.15;3.03;;;11.00;99.90;;;;;;5037191;28;20719;-87
2021/12/13 13:47:55;;;;;;;3.15;3.05;;;10.80;99.90;;;;;;5040354;28;20229;-86
2021/12/13 13:50:36;;;;;;;3.22;2.97;;;11.50;99.90;;;;;;5043923;28;20199;-86
2021/12/13 13:53:14;;;;;;;2.40;2.40;;;9.50;99.90;;;;;;5063000;28;20171;-83
2021/12/13 13:55:53;;;;;;;3.03;2.90;;;11.20;99.90;;;;;;5058793;28;20196;-80
2021/12/13 13:58:24;;;;;;;3.30;3.15;;;10.80;99.90;;;;;;5023815;28;20610;-84
2021/12/13 14:01:01;;;;;;;3.80;2.70;;;10.40;99.90;;;;;;5036137;28;20195;-88
2021/12/13 14:03:38;;;;;;;3.80;3.60;;;9.40;99.90;;;;;;5025524;28;20176;-86
2021/12/13 14:06:13;;;;;;;4.93;4.63;;;10.20;99.90;;;;;;4895575;28;10000530;-88
2021/12/13 14:08:41;;;;;;;4.00;3.90;;;10.60;99.90;;;;;;5022012;28;20397;-86
2021/12/13 14:11:14;;;;;;;3.00;2.90;;;10.60;99.90;;;;;;5023660;28;20460;-85
2021/12/13 14:13:42;;;;;;;2.83;2.83;;;10.60;99.90;;;;;;5060011;28;20482;-86
2021/12/13 14:16:28;;;;;;;3.15;3.15;;;10.80;99.90;;;;;;5057701;28;20455;-86
2021/12/13 14:18:54;;;;;;;2.97;2.78;;;10.70;99.90;;;;;;5044884;28;20552;-81
2021/12/13 14:21:24;;;;;;;3.08;2.97;;;10.60;99.90;;;;;;5038968;28;20191;-86
2021/12/13 14:23:53;;;;;;;3.13;2.88;;;10.60;99.90;;;;;;5057412;28;20365;-85